Time;durP1;ratioP1;P1;durP2;ratioP2;P2;SDS_P1;SDS_P2;PMS_P1;PMS_P2;Temp;Humidity;BMP_temperature;BMP_pressure;BME280_temperature;BME280_humidity;BME280_pressure;Samples;Min_cycle;Max_cycle;Signal;HPM_P1;HPM_P2
2022/10/27 06:36:01;;;;;;;11.85;4.47;;;;;;;6.95;100.00;99848.09;5160382;27;20376;-78
2022/10/27 06:38:28;;;;;;;10.43;4.43;;;;;;;6.91;100.00;99847.56;5149429;27;20476;-76
2022/10/27 06:40:55;;;;;;;10.02;5.07;;;;;;;6.90;100.00;99840.44;5153354;27;20042;-76
2022/10/27 06:43:21;;;;;;;17.10;4.15;;;;;;;6.81;100.00;99831.34;5148573;27;20123;-76
2022/10/27 06:45:49;;;;;;;6.43;4.30;;;;;;;6.92;100.00;99857.34;5149309;27;20038;-76
2022/10/27 06:48:15;;;;;;;10.57;4.13;;;;;;;6.94;100.00;99846.38;5149307;27;20130;-76
2022/10/27 06:50:42;;;;;;;6.32;4.55;;;;;;;7.06;100.00;99847.91;5149359;27;20047;-76
2022/10/27 06:53:10;;;;;;;11.27;4.63;;;;;;;7.14;100.00;99844.53;5148467;27;20497;-76
2022/10/27 06:55:36;;;;;;;7.40;3.63;;;;;;;7.38;100.00;99873.78;5161080;27;20042;-76
2022/10/27 06:58:04;;;;;;;7.05;4.13;;;;;;;7.34;100.00;99864.25;5161126;27;20390;-77
2022/10/27 07:00:31;;;;;;;8.85;3.88;;;;;;;7.41;100.00;99870.78;5154898;27;20125;-77
2022/10/27 07:02:57;;;;;;;11.57;3.70;;;;;;;7.48;100.00;99857.50;5169006;27;20497;-77
2022/10/27 07:05:24;;;;;;;9.23;4.80;;;;;;;7.55;100.00;99859.47;5170020;27;20046;-77
2022/10/27 07:07:52;;;;;;;5.15;3.42;;;;;;;7.71;100.00;99875.06;5169343;27;20046;-77
2022/10/27 07:10:21;;;;;;;6.15;4.03;;;;;;;7.57;100.00;99849.34;5169649;27;20134;-77
2022/10/27 07:12:53;;;;;;;6.20;3.53;;;;;;;7.66;100.00;99847.59;5167913;27;20051;-77
2022/10/27 07:15:20;;;;;;;8.73;3.50;;;;;;;7.76;100.00;99848.41;5169382;27;20042;-77
2022/10/27 07:17:46;;;;;;;8.52;4.28;;;;;;;7.94;100.00;99855.72;5169583;27;20488;-77
2022/10/27 07:20:13;;;;;;;9.25;4.50;;;;;;;8.00;100.00;99846.16;5169649;27;20054;-76
2022/10/27 07:22:40;;;;;;;9.02;5.72;;;;;;;8.01;100.00;99824.34;5168905;27;20133;-76
2022/10/27 07:25:07;;;;;;;8.60;4.22;;;;;;;8.26;100.00;99851.69;5168343;27;20503;-76
2022/10/27 07:27:35;;;;;;;10.10;4.35;;;;;;;8.37;100.00;99842.47;5169508;27;20050;-77
2022/10/27 07:30:02;;;;;;;12.43;4.82;;;;;;;8.42;100.00;99835.59;5168087;27;20054;-76
2022/10/27 07:32:28;;;;;;;11.43;5.90;;;;;;;8.56;100.00;99849.63;5161683;27;20469;-77
2022/10/27 07:34:55;;;;;;;11.68;5.00;;;;;;;8.74;100.00;99853.19;5167208;27;20137;-78
2022/10/27 07:37:21;;;;;;;13.85;5.32;;;;;;;8.85;100.00;99854.78;5168987;27;20050;-78
2022/10/27 07:39:48;;;;;;;19.02;5.57;;;;;;;8.94;100.00;99862.00;5169338;27;20046;-78
2022/10/27 07:42:16;;;;;;;15.32;6.00;;;;;;;9.06;100.00;99868.00;5168459;27;20261;-78
2022/10/27 07:44:44;;;;;;;12.65;6.43;;;;;;;9.17;100.00;99870.47;5168852;27;20409;-78
2022/10/27 07:47:10;;;;;;;13.68;6.22;;;;;;;9.33;100.00;99868.88;5151155;27;20057;-78
2022/10/27 07:49:37;;;;;;;18.45;6.82;;;;;;;9.38;100.00;99871.97;5154337;27;20485;-78
2022/10/27 07:52:04;;;;;;;24.88;7.40;;;;;;;9.50;100.00;99859.84;5154431;27;20448;-78
2022/10/27 07:54:33;;;;;;;22.45;7.03;;;;;;;9.58;100.00;99872.59;5154601;27;20073;-78
2022/10/27 07:57:00;;;;;;;14.98;6.90;;;;;;;9.64;100.00;99879.25;5155030;27;20099;-78
2022/10/27 07:59:27;;;;;;;16.08;6.93;;;;;;;9.69;100.00;99883.16;5154829;27;20053;-78
2022/10/27 08:01:55;;;;;;;13.65;6.40;;;;;;;9.84;100.00;99882.56;5154939;27;20054;-78
2022/10/27 08:04:21;;;;;;;21.52;6.10;;;;;;;9.92;100.00;99875.31;5152566;27;20134;-78
2022/10/27 08:06:48;;;;;;;13.40;5.80;;;;;;;10.02;100.00;99888.75;5154201;27;20055;-78
2022/10/27 08:09:14;;;;;;;16.73;6.95;;;;;;;9.97;100.00;99854.97;5154657;27;20053;-78
2022/10/27 08:11:41;;;;;;;19.98;8.52;;;;;;;10.21;100.00;99868.63;5154550;27;20043;-78
2022/10/27 08:14:08;;;;;;;16.25;7.20;;;;;;;10.40;100.00;99877.53;5154177;27;20047;-78
2022/10/27 08:16:34;;;;;;;15.60;7.57;;;;;;;10.51;100.00;99885.38;5154208;27;20050;-78
2022/10/27 08:19:02;;;;;;;16.75;7.07;;;;;;;10.42;100.00;99872.78;5154667;27;20050;-78
2022/10/27 08:21:29;;;;;;;15.70;7.18;;;;;;;10.63;100.00;99894.91;5144408;27;20133;-78
2022/10/27 08:23:55;;;;;;;27.30;7.57;;;;;;;10.55;100.00;99858.69;5153459;27;20054;-78
2022/10/27 08:26:22;;;;;;;20.45;6.85;;;;;;;10.69;100.00;99876.22;5154324;27;20046;-78
2022/10/27 08:28:48;;;;;;;12.90;6.57;;;;;;;10.81;100.00;99883.03;5154536;27;20093;-78
2022/10/27 08:31:15;;;;;;;18.73;7.50;;;;;;;10.86;100.00;99874.38;5154335;27;20500;-78
2022/10/27 08:33:41;;;;;;;14.13;7.20;;;;;;;10.97;100.00;99865.84;5151738;27;20051;-78
2022/10/27 08:36:10;;;;;;;11.98;8.35;;;;;;;11.21;100.00;99881.31;5154135;27;20042;-78
2022/10/27 08:38:37;;;;;;;18.30;8.77;;;;;;;11.34;100.00;99870.75;5152086;27;20043;-78
2022/10/27 08:41:14;;;;;;;18.70;8.65;;;;;;;11.62;100.00;99878.53;5153831;27;20071;-78
2022/10/27 08:44:13;;;;;;;20.70;8.95;;;;;;;11.65;100.00;99856.41;5153571;27;20053;-78
2022/10/27 08:46:43;;;;;;;12.55;7.45;;;;;;;11.97;100.00;99886.47;5154178;27;20099;-78
2022/10/27 08:49:20;;;;;;;23.40;8.40;;;;;;;11.91;100.00;99846.25;5153915;27;20046;-78
2022/10/27 08:51:50;;;;;;;17.15;6.45;;;;;;;12.12;100.00;99859.28;5154076;27;20043;-78
2022/10/27 08:54:17;;;;;;;15.68;5.80;;;;;;;12.36;100.00;99881.00;5143256;27;20046;-78
2022/10/27 08:56:44;;;;;;;11.73;5.30;;;;;;;12.38;100.00;99869.91;5153397;27;20089;-78
2022/10/27 08:59:16;;;;;;;11.43;4.75;;;;;;;12.39;100.00;99850.63;5152667;27;20049;-78
2022/10/27 09:01:50;;;;;;;13.43;6.13;;;;;;;12.76;100.00;99880.91;5153781;27;20464;-78
2022/10/27 09:04:36;;;;;;;9.35;4.95;;;;;;;12.84;100.00;99872.66;5152704;27;20050;-78
2022/10/27 09:07:16;;;;;;;17.13;5.03;;;;;;;12.85;100.00;99848.94;5153559;27;20046;-78
2022/10/27 09:09:49;;;;;;;28.63;7.22;;;;;;;13.10;100.00;99877.72;5149548;27;20486;-78
2022/10/27 09:12:27;;;;;;;19.40;5.63;;;;;;;13.09;100.00;99862.38;5152473;27;20133;-78
2022/10/27 09:15:28;;;;;;;12.63;5.30;;;;;;;13.13;100.00;99860.16;5153604;27;20047;-77
2022/10/27 09:18:03;;;;;;;15.07;4.70;;;;;;;13.24;100.00;99856.94;5142046;27;20054;-77
2022/10/27 09:20:36;;;;;;;13.95;5.25;;;;;;;13.26;100.00;99848.56;5153311;27;20486;-78
2022/10/27 09:23:11;;;;;;;15.55;5.15;;;;;;;13.50;100.00;99871.25;5152321;27;20512;-78
2022/10/27 09:25:40;;;;;;;12.35;5.18;;;;;;;13.54;100.00;99865.22;5148841;27;20130;-78
2022/10/27 09:28:16;;;;;;;26.70;5.57;;;;;;;13.62;100.00;99869.75;5152794;27;20054;-78
2022/10/27 09:30:45;;;;;;;17.65;5.47;;;;;;;13.73;100.00;99868.44;5153118;27;20060;-78
2022/10/27 09:33:17;;;;;;;10.20;4.63;;;;;;;13.83;100.00;99876.34;5151901;27;20043;-78
2022/10/27 09:35:43;;;;;;;13.75;4.82;;;;;;;13.80;100.00;99862.03;5152088;27;20134;-78
2022/10/27 09:38:15;;;;;;;8.80;4.68;;;;;;;13.96;100.00;99866.44;5152766;27;20051;-78
2022/10/27 09:40:42;;;;;;;8.15;4.43;;;;;;;14.11;100.00;99869.16;5152581;27;20125;-78
2022/10/27 09:43:10;;;;;;;9.13;4.40;;;;;;;14.23;100.00;99865.97;5143900;27;20047;-78
2022/10/27 09:45:37;;;;;;;19.20;4.60;;;;;;;14.40;100.00;99872.03;5152492;27;20074;-78
2022/10/27 09:48:06;;;;;;;10.00;3.67;;;;;;;14.34;100.00;99868.19;5153294;27;20492;-78
2022/10/27 09:50:39;;;;;;;10.65;4.13;;;;;;;14.43;100.00;99867.03;5152782;27;20046;-78
2022/10/27 09:53:26;;;;;;;11.15;4.22;;;;;;;14.56;100.00;99876.41;5152708;27;20051;-78
2022/10/27 09:55:54;;;;;;;12.43;4.07;;;;;;;14.63;100.00;99864.56;5147256;27;20129;-78
2022/10/27 09:58:21;;;;;;;18.42;4.13;;;;;;;14.69;100.00;99866.50;5151892;27;20129;-78
2022/10/27 10:00:56;;;;;;;12.32;3.17;;;;;;;14.88;100.00;99863.31;5152553;27;20050;-77
2022/10/27 10:03:23;;;;;;;13.80;4.18;;;;;;;14.85;100.00;99848.97;5151729;27;20049;-78
2022/10/27 10:05:58;;;;;;;13.88;5.13;;;;;;;15.01;100.00;99849.75;5152531;27;20050;-78
2022/10/27 10:08:28;;;;;;;12.07;4.15;;;;;;;15.04;100.00;99847.47;5152082;27;20057;-78
2022/10/27 10:10:58;;;;;;;8.10;3.47;;;;;;;15.19;100.00;99851.97;5152703;27;20392;-78
2022/10/27 10:13:25;;;;;;;12.10;3.67;;;;;;;15.28;100.00;99859.03;5146735;27;20129;-78
2022/10/27 10:16:07;;;;;;;14.23;3.58;;;;;;;15.29;100.00;99857.13;5152172;27;20573;-78
2022/10/27 10:18:35;;;;;;;9.43;3.42;;;;;;;15.27;100.00;99842.81;5152166;27;20078;-77
2022/10/27 10:21:04;;;;;;;12.43;3.40;;;;;;;15.41;100.00;99850.06;5152276;27;20049;-78
2022/10/27 10:23:33;;;;;;;12.13;4.13;;;;;;;15.60;100.00;99839.41;5151463;27;20413;-78
2022/10/27 10:26:03;;;;;;;11.93;4.22;;;;;;;15.81;100.00;99849.53;5152158;27;20554;-77
2022/10/27 10:28:34;;;;;;;9.75;3.50;;;;;;;15.95;100.00;99837.56;5151797;27;20051;-79
2022/10/27 10:31:04;;;;;;;16.00;3.58;;;;;;;16.05;100.00;99843.50;5149965;27;20135;-79
2022/10/27 10:33:34;;;;;;;9.38;2.97;;;;;;;16.17;100.00;99829.19;5150242;27;20103;-78
2022/10/27 10:36:17;;;;;;;7.38;3.30;;;;;;;16.32;100.00;99837.25;5146400;27;20043;-78
2022/10/27 10:38:50;;;;;;;13.57;2.92;;;;;;;16.38;100.00;99826.31;5152146;27;20054;-78
2022/10/27 10:41:19;;;;;;;11.00;3.25;;;;;;;16.49;100.00;99827.63;5151958;27;20051;-78
2022/10/27 10:43:46;;;;;;;14.10;3.83;;;;;;;16.51;100.00;99825.50;5144735;27;20056;-78
2022/10/27 10:46:21;;;;;;;9.30;3.50;;;;;;;16.53;100.00;99806.06;5151656;27;20304;-78
2022/10/27 10:48:52;;;;;;;9.18;4.32;;;;;;;16.63;100.00;99812.00;5152157;27;20058;-78
2022/10/27 10:51:26;;;;;;;13.27;3.00;;;;;;;16.78;100.00;99831.88;5150358;27;20054;-78
2022/10/27 10:53:58;;;;;;;6.93;2.70;;;;;;;16.76;100.00;99811.19;5150070;27;20061;-79
2022/10/27 10:56:29;;;;;;;11.00;3.25;;;;;;;16.84;100.00;99808.22;5151846;27;20053;-80
2022/10/27 10:59:03;;;;;;;8.10;2.70;;;;;;;16.86;100.00;99795.16;5151879;27;20505;-77
2022/10/27 11:01:40;;;;;;;9.55;3.60;;;;;;;17.09;100.00;99802.16;5151855;27;20055;-77
2022/10/27 11:04:09;;;;;;;16.17;3.67;;;;;;;17.31;100.00;99820.09;5150990;27;20274;-77
2022/10/27 11:06:36;;;;;;;11.83;3.33;;;;;;;17.33;100.00;99812.47;5151969;27;20047;-77
2022/10/27 11:09:04;;;;;;;12.38;2.70;;;;;;;17.58;100.00;99813.72;5149517;27;20335;-79
2022/10/27 11:11:36;;;;;;;11.65;3.45;;;;;;;17.65;100.00;99801.63;5143081;27;20050;-79
2022/10/27 11:14:08;;;;;;;12.15;4.40;;;;;;;17.65;100.00;99785.13;5151065;27;20129;-77
2022/10/27 11:16:38;;;;;;;9.90;3.25;;;;;;;17.83;100.00;99798.19;5151533;27;20051;-77
2022/10/27 11:19:07;;;;;;;14.90;2.78;;;;;;;18.02;100.00;99806.59;5151844;27;20061;-77
2022/10/27 11:21:39;;;;;;;7.68;2.67;;;;;;;17.98;100.00;99795.19;5153731;27;20068;-77
2022/10/27 11:24:13;;;;;;;9.23;2.30;;;;;;;17.92;100.00;99778.75;5154410;27;20054;-79
2022/10/27 11:26:46;;;;;;;8.45;2.72;;;;;;;18.03;100.00;99787.13;5149957;27;20051;-79
2022/10/27 11:29:18;;;;;;;11.25;3.28;;;;;;;18.21;100.00;99796.56;5155386;27;20053;-78
2022/10/27 11:31:53;;;;;;;6.80;2.17;;;;;;;18.20;100.00;99784.75;5155078;27;20057;-78
2022/10/27 11:34:32;;;;;;;13.38;3.88;;;;;;;18.29;100.00;99777.06;5153532;27;20043;-78
2022/10/27 11:37:04;;;;;;;14.68;2.88;;;;;;;18.36;100.00;99785.28;5155575;27;20038;-78
2022/10/27 11:39:34;;;;;;;7.18;2.72;;;;;;;18.48;100.00;99783.50;5154921;27;20125;-78
2022/10/27 11:42:09;;;;;;;12.32;2.80;;;;;;;18.68;97.21;99764.09;5154909;27;20039;-78
2022/10/27 11:44:43;;;;;;;7.45;2.22;;;;;;;18.75;97.52;99773.13;5148389;27;20043;-78
2022/10/27 11:47:15;;;;;;;9.98;2.83;;;;;;;18.74;95.54;99746.69;5155145;27;20126;-78
2022/10/27 11:49:48;;;;;;;5.72;1.95;;;;;;;18.97;94.97;99766.44;5155290;27;20047;-78
2022/10/27 11:52:21;;;;;;;5.18;2.13;;;;;;;19.17;96.24;99774.53;5154345;27;20042;-78
2022/10/27 11:54:48;;;;;;;8.55;2.40;;;;;;;19.16;93.37;99742.53;5154765;27;20057;-78
2022/10/27 11:57:34;;;;;;;9.88;4.03;;;;;;;19.28;92.61;99754.47;5154924;27;20054;-78
2022/10/27 12:00:12;;;;;;;12.50;2.30;;;;;;;19.45;88.16;99758.34;5153596;27;20042;-78
2022/10/27 12:03:15;;;;;;;6.82;2.30;;;;;;;19.54;90.36;99755.25;5146763;27;20046;-78
2022/10/27 12:05:47;;;;;;;15.98;2.25;;;;;;;19.51;86.86;99740.03;5154594;27;20129;-78
2022/10/27 12:08:27;;;;;;;9.23;2.22;;;;;;;19.52;88.16;99736.19;5154943;27;20043;-78
2022/10/27 12:11:04;;;;;;;18.30;2.78;;;;;;;19.67;87.66;99760.63;5154532;27;20371;-78
2022/10/27 12:13:42;;;;;;;9.38;2.40;;;;;;;19.72;85.47;99746.16;5153531;27;20046;-78
2022/10/27 12:16:15;;;;;;;8.10;1.95;;;;;;;19.90;82.08;99748.06;5154407;27;20070;-78
2022/10/27 12:18:48;;;;;;;10.45;2.58;;;;;;;19.94;84.03;99741.84;5143512;27;20054;-78
2022/10/27 12:21:20;;;;;;;9.32;2.00;;;;;;;19.82;82.82;99726.34;5152254;27;20050;-78
2022/10/27 12:23:53;;;;;;;14.88;3.75;;;;;;;19.86;81.37;99716.50;5153403;27;20049;-78
2022/10/27 12:26:26;;;;;;;11.23;2.35;;;;;;;20.01;80.55;99733.50;5154019;27;20049;-78
2022/10/27 12:28:55;;;;;;;9.90;2.30;;;;;;;20.22;81.19;99736.81;5154248;27;20074;-78
2022/10/27 12:31:24;;;;;;;;;;;;;;;20.19;79.91;99734.53;5154789;27;20049;-78
2022/10/27 12:33:55;;;;;;;7.90;2.15;;;;;;;20.25;81.24;99733.59;5151249;27;19919;-78
2022/10/27 12:36:26;;;;;;;7.40;2.17;;;;;;;20.24;80.25;99713.44;5153497;27;20474;-78
2022/10/27 12:39:02;;;;;;;12.30;3.20;;;;;;;20.38;77.00;99708.53;5153764;27;20078;-78
2022/10/27 12:41:32;;;;;;;10.65;2.38;;;;;;;20.49;76.88;99726.25;5153793;27;20047;-78
2022/10/27 12:44:14;;;;;;;15.13;2.15;;;;;;;20.40;77.14;99702.78;5153510;27;20050;-78
2022/10/27 12:46:55;;;;;;;8.15;2.05;;;;;;;20.47;76.85;99695.25;5153900;27;20050;-78
2022/10/27 12:49:30;;;;;;;12.48;2.35;;;;;;;20.58;75.94;99726.72;5153909;27;20062;-78
2022/10/27 12:52:04;;;;;;;9.00;2.67;;;;;;;20.47;73.78;99696.09;5148093;27;20130;-78
2022/10/27 12:54:47;;;;;;;9.68;2.17;;;;;;;20.57;73.47;99711.25;5144810;27;20128;-78
2022/10/27 12:57:27;;;;;;;10.45;2.78;;;;;;;20.73;74.24;99710.56;5153777;27;20082;-78
2022/10/27 13:00:02;;;;;;;7.35;1.88;;;;;;;20.62;70.56;99690.09;5153862;27;20051;-78
2022/10/27 13:02:33;;;;;;;10.80;1.98;;;;;;;20.85;69.78;99700.38;5152311;27;20073;-78
2022/10/27 13:05:33;;;;;;;5.47;1.73;;;;;;;20.79;69.41;99684.75;5153446;27;20047;-78
2022/10/27 13:08:31;;;;;;;6.45;1.83;;;;;;;20.81;70.46;99681.75;5153458;27;20039;-78
2022/10/27 13:11:27;;;;;;;4.28;1.55;;;;;;;20.89;70.45;99692.44;5148491;27;20516;-78
2022/10/27 13:14:11;;;;;;;8.38;1.83;;;;;;;21.00;69.90;99704.56;5150773;27;20482;-78
2022/10/27 13:16:51;;;;;;;5.72;1.80;;;;;;;20.93;72.06;99682.59;5153275;27;20359;-78
2022/10/27 13:19:26;;;;;;;11.32;2.60;;;;;;;21.00;73.33;99687.97;5153011;27;20057;-78
2022/10/27 13:22:02;;;;;;;8.88;2.13;;;;;;;21.03;73.11;99685.59;5153094;27;20039;-78
2022/10/27 13:24:36;;;;;;;10.13;2.53;;;;;;;21.03;68.82;99687.50;5152862;27;20142;-78
2022/10/27 13:27:11;;;;;;;5.95;1.75;;;;;;;21.16;71.04;99690.00;5151195;27;20057;-77
2022/10/27 13:29:43;;;;;;;10.30;1.80;;;;;;;21.13;70.80;99667.56;5150120;27;20050;-78
2022/10/27 13:32:46;;;;;;;8.80;1.98;;;;;;;21.11;68.52;99673.31;5147522;27;20400;-78
2022/10/27 13:35:35;;;;;;;7.00;1.60;;;;;;;21.04;69.25;99650.50;5151047;27;20046;-78
2022/10/27 13:38:31;;;;;;;14.30;2.17;;;;;;;21.09;68.12;99658.91;5148027;27;20504;-78
2022/10/27 13:40:58;;;;;;;7.75;1.88;;;;;;;21.24;69.87;99671.38;5152926;27;20654;-76
2022/10/27 13:43:58;;;;;;;16.08;2.72;;;;;;;21.35;66.30;99679.66;5146302;27;20050;-77
2022/10/27 13:47:09;;;;;;;8.68;2.10;;;;;;;21.37;66.66;99680.25;5145309;27;20053;-77
2022/10/27 13:49:57;;;;;;;7.70;1.75;;;;;;;21.45;67.30;99670.72;5127179;27;20112;-76
2022/10/27 13:52:27;;;;;;;4.78;1.48;;;;;;;21.36;66.79;99652.84;5151596;27;20047;-76
2022/10/27 13:54:57;;;;;;;;;;;;;;;21.52;65.78;99670.63;5152929;27;20050;-76
2022/10/27 13:57:50;;;;;;;5.70;1.70;;;;;;;21.53;65.70;99658.50;5152389;27;19919;-77
2022/10/27 14:00:19;;;;;;;8.35;1.92;;;;;;;21.54;67.29;99668.47;5152357;27;20072;-77
2022/10/27 14:03:04;;;;;;;4.68;1.63;;;;;;;21.61;66.91;99679.41;5146449;27;20047;-77
2022/10/27 14:05:33;;;;;;;8.55;1.60;;;;;;;21.61;67.34;99685.75;5142589;27;20610;-78
2022/10/27 14:08:01;;;;;;;8.07;2.28;;;;;;;21.59;67.33;99676.00;5152670;27;20099;-77
2022/10/27 14:10:29;;;;;;;8.25;2.20;;;;;;;21.50;67.69;99656.22;5151557;27;20057;-77
2022/10/27 14:12:55;;;;;;;8.63;1.60;;;;;;;21.55;68.91;99645.25;5151955;27;20098;-78
2022/10/27 14:15:25;;;;;;;7.00;1.92;;;;;;;21.55;69.21;99653.56;5152144;27;20125;-77
2022/10/27 14:17:53;;;;;;;12.18;2.10;;;;;;;21.59;68.88;99664.94;5148373;27;20127;-77
2022/10/27 14:20:26;;;;;;;7.03;1.90;;;;;;;21.68;68.83;99657.94;5151611;27;20047;-77
2022/10/27 14:22:57;;;;;;;10.23;1.83;;;;;;;21.63;70.46;99666.16;5151526;27;20047;-77
2022/10/27 14:25:28;;;;;;;5.78;1.60;;;;;;;21.54;69.71;99655.50;5152046;27;20127;-77
2022/10/27 14:28:06;;;;;;;6.53;1.77;;;;;;;21.60;69.66;99673.00;5152485;27;20046;-77
2022/10/27 14:30:33;;;;;;;3.88;2.13;;;;;;;21.47;70.32;99646.44;5151909;27;20078;-77
2022/10/27 14:33:16;;;;;;;7.53;1.80;;;;;;;21.52;71.89;99665.94;5149227;27;20059;-77
2022/10/27 14:35:42;;;;;;;13.63;1.77;;;;;;;21.52;72.17;99665.09;5145459;27;20050;-77
2022/10/27 14:38:15;;;;;;;5.72;1.67;;;;;;;21.51;71.23;99671.72;5151947;27;20061;-77
2022/10/27 14:40:43;;;;;;;10.20;2.28;;;;;;;21.30;70.38;99651.03;5152324;27;20514;-77
2022/10/27 14:43:18;;;;;;;7.53;1.77;;;;;;;21.31;71.77;99656.34;5151417;27;20050;-77
2022/10/27 14:45:46;;;;;;;5.90;1.77;;;;;;;21.03;73.03;99641.38;5152018;27;20205;-77
2022/10/27 14:48:23;;;;;;;5.00;1.90;;;;;;;21.06;73.17;99669.59;5152411;27;20395;-77
2022/10/27 14:50:51;;;;;;;12.15;3.45;;;;;;;20.84;74.23;99642.59;5145203;27;20050;-77
2022/10/27 14:53:25;;;;;;;4.97;1.75;;;;;;;20.92;76.34;99667.06;5151060;27;20057;-77
2022/10/27 14:56:16;;;;;;;5.28;1.42;;;;;;;20.75;76.66;99666.13;5152643;27;20085;-77
2022/10/27 14:58:50;;;;;;;4.28;1.95;;;;;;;20.54;77.47;99640.75;5156380;27;20133;-77
2022/10/27 15:01:21;;;;;;;5.55;2.00;;;;;;;20.44;79.44;99655.13;5156284;27;20127;-78
2022/10/27 15:03:48;;;;;;;14.32;2.10;;;;;;;20.29;81.80;99633.53;5155167;27;20045;-78
2022/10/27 15:06:19;;;;;;;7.70;1.80;;;;;;;20.13;82.20;99632.28;5155847;27;20133;-78
2022/10/27 15:08:47;;;;;;;8.38;1.70;;;;;;;20.05;83.28;99648.31;5150566;27;20055;-77
2022/10/27 15:11:19;;;;;;;14.15;1.90;;;;;;;19.79;83.42;99640.19;5155936;27;20085;-77
2022/10/27 15:13:46;;;;;;;10.98;1.90;;;;;;;19.73;84.22;99643.03;5155260;27;20043;-78
2022/10/27 15:16:18;;;;;;;15.43;2.13;;;;;;;19.67;84.12;99652.22;5156043;27;20051;-77
2022/10/27 15:18:45;;;;;;;9.60;1.60;;;;;;;19.58;84.98;99647.03;5155298;27;20039;-77
2022/10/27 15:21:15;;;;;;;17.60;1.98;;;;;;;19.44;87.49;99651.88;5154998;27;20478;-77
2022/10/27 15:23:44;;;;;;;14.35;2.05;;;;;;;19.33;88.83;99647.16;5154712;27;20565;-77
2022/10/27 15:26:14;;;;;;;14.32;1.95;;;;;;;19.14;90.40;99642.72;5152382;27;20054;-77
2022/10/27 15:28:43;;;;;;;13.50;2.22;;;;;;;18.91;91.82;99634.03;5155614;27;20049;-77
2022/10/27 15:31:09;;;;;;;8.90;1.85;;;;;;;18.79;93.55;99632.22;5155390;27;20066;-77
2022/10/27 15:33:40;;;;;;;8.13;2.30;;;;;;;18.75;94.53;99640.94;5153135;27;20147;-77
2022/10/27 15:36:12;;;;;;;10.95;2.10;;;;;;;18.61;95.37;99624.78;5155602;27;20051;-77
2022/10/27 15:38:39;;;;;;;8.23;2.20;;;;;;;18.52;96.30;99636.09;5155390;27;20081;-77
2022/10/27 15:41:11;;;;;;;6.65;2.03;;;;;;;18.41;96.86;99620.28;5155473;27;20047;-77
2022/10/27 15:43:39;;;;;;;13.20;2.00;;;;;;;18.37;97.34;99641.94;5146627;27;20390;-77
2022/10/27 15:46:17;;;;;;;6.32;1.85;;;;;;;18.38;98.95;99654.63;5155321;27;20473;-77
2022/10/27 15:48:45;;;;;;;8.80;2.35;;;;;;;18.11;100.00;99633.88;5155010;27;20118;-77
2022/10/27 15:51:14;;;;;;;9.65;1.70;;;;;;;17.97;100.00;99638.63;5154729;27;20478;-77
2022/10/27 15:53:47;;;;;;;10.27;2.15;;;;;;;17.96;100.00;99665.31;5154248;27;20061;-77
2022/10/27 15:56:39;;;;;;;14.15;4.13;;;;;;;17.82;100.00;99664.47;5154796;27;20125;-77
2022/10/27 15:59:12;;;;;;;9.27;2.97;;;;;;;17.71;100.00;99672.63;5149231;27;20424;-77
2022/10/27 16:01:44;;;;;;;5.00;1.83;;;;;;;17.56;100.00;99662.72;5154500;27;20505;-77
2022/10/27 16:04:27;;;;;;;12.52;2.08;;;;;;;17.41;100.00;99660.25;5153332;27;20133;-77
2022/10/27 16:07:32;;;;;;;15.40;2.17;;;;;;;17.33;100.00;99672.34;5154443;27;20043;-77
2022/10/27 16:09:59;;;;;;;4.85;1.75;;;;;;;17.10;100.00;99641.75;5154975;27;20133;-77
2022/10/27 16:12:29;;;;;;;6.05;2.33;;;;;;;16.94;100.00;99638.44;5153854;27;20450;-77
2022/10/27 16:14:59;;;;;;;9.80;1.88;;;;;;;17.06;100.00;99652.34;5154961;27;20609;-77
2022/10/27 16:17:40;;;;;;;13.93;2.42;;;;;;;17.08;100.00;99665.88;5152946;27;20485;-77
2022/10/27 16:20:14;;;;;;;9.90;2.13;;;;;;;16.94;100.00;99660.41;5154410;27;20043;-77
2022/10/27 16:22:40;;;;;;;7.22;2.55;;;;;;;16.81;100.00;99639.25;5153738;27;20505;-77
2022/10/27 16:25:11;;;;;;;9.80;1.67;;;;;;;16.84;100.00;99662.69;5154815;27;20052;-77
2022/10/27 16:27:41;;;;;;;8.77;1.60;;;;;;;16.81;100.00;99655.72;5153867;27;20441;-77
2022/10/27 16:30:08;;;;;;;11.40;3.55;;;;;;;16.88;100.00;99664.00;5156497;27;20459;-80
2022/10/27 16:32:36;;;;;;;16.08;2.63;;;;;;;16.79;100.00;99657.03;5153005;27;20046;-80
